createdAt,value
2023-11-24T00:00:17.870Z,1.00
2023-11-24T00:03:06.538Z,1.30
2023-11-24T00:05:35.283Z,1.30
2023-11-24T00:08:05.830Z,1.50
2023-11-24T00:10:36.392Z,2.10
2023-11-24T00:13:05.490Z,0.80
2023-11-24T00:15:34.040Z,1.40
2023-11-24T00:18:03.426Z,1.70
2023-11-24T00:20:33.187Z,1.30
2023-11-24T00:23:03.435Z,2.60
2023-11-24T00:25:33.973Z,1.40
2023-11-24T00:28:02.681Z,1.30
2023-11-24T00:30:31.665Z,1.00
2023-11-24T00:33:03.082Z,4.70
2023-11-24T00:35:32.733Z,1.10
2023-11-24T00:38:01.352Z,3.10
2023-11-24T00:40:29.970Z,1.50
2023-11-24T00:42:58.914Z,1.10
2023-11-24T00:45:28.451Z,1.60
2023-11-24T00:47:57.356Z,1.60
2023-11-24T00:50:26.243Z,1.30
2023-11-24T00:52:54.693Z,2.20
2023-11-24T00:55:24.464Z,1.30
2023-11-24T00:57:53.351Z,1.10
2023-11-24T01:00:21.906Z,1.40
2023-11-24T01:02:51.400Z,0.90
2023-11-24T01:05:21.253Z,1.00
2023-11-24T01:07:50.602Z,1.10
2023-11-24T01:10:19.599Z,0.90
2023-11-24T01:12:48.091Z,3.10
2023-11-24T01:15:17.476Z,1.70
2023-11-24T01:17:46.411Z,1.20
2023-11-24T01:20:17.798Z,1.80
2023-11-24T01:22:47.241Z,2.20
2023-11-24T01:25:16.333Z,2.00
2023-11-24T01:27:45.200Z,3.10
2023-11-24T01:30:13.879Z,1.10
2023-11-24T01:32:42.685Z,1.30
2023-11-24T01:35:12.685Z,0.80
2023-11-24T01:37:41.573Z,0.90
2023-11-24T01:40:12.628Z,0.60
2023-11-24T01:42:41.327Z,1.70
2023-11-24T01:45:12.462Z,0.90
2023-11-24T01:47:41.186Z,1.70
2023-11-24T01:50:12.319Z,2.20
2023-11-24T01:52:41.291Z,1.70
2023-11-24T01:55:14.460Z,1.90
2023-11-24T01:57:44.221Z,1.80
2023-11-24T02:00:17.257Z,2.50
2023-11-24T02:02:46.589Z,0.80
2023-11-24T02:05:16.286Z,1.90
2023-11-24T02:07:46.411Z,1.30
2023-11-24T02:10:15.314Z,1.50
2023-11-24T02:12:44.064Z,0.80
2023-11-24T02:15:12.621Z,1.40
2023-11-24T02:17:41.380Z,1.20
2023-11-24T02:20:15.184Z,1.50
2023-11-24T02:22:44.642Z,1.40
2023-11-24T02:25:13.927Z,2.30
2023-11-24T02:27:42.926Z,2.70
2023-11-24T02:30:13.082Z,1.40
2023-11-24T02:32:41.929Z,1.30
2023-11-24T02:35:11.182Z,1.80
2023-11-24T02:37:40.290Z,1.80
2023-11-24T02:40:10.207Z,1.20
2023-11-24T02:42:39.479Z,2.40
2023-11-24T02:45:08.980Z,2.00
2023-11-24T02:47:38.132Z,1.90
2023-11-24T02:50:07.546Z,0.70
2023-11-24T02:52:36.558Z,1.10
2023-11-24T02:55:05.947Z,0.90
2023-11-24T02:57:35.315Z,0.70
2023-11-24T03:00:06.485Z,1.20
2023-11-24T03:02:35.910Z,1.40
2023-11-24T03:05:05.651Z,2.50
2023-11-24T03:07:37.483Z,2.00
2023-11-24T03:10:07.227Z,1.70
2023-11-24T03:12:35.998Z,0.90
2023-11-24T03:15:05.199Z,1.60
2023-11-24T03:17:33.780Z,0.90
2023-11-24T03:20:02.680Z,1.20
2023-11-24T03:22:31.223Z,0.80
2023-11-24T03:25:00.178Z,0.70
2023-11-24T03:27:29.178Z,0.70
2023-11-24T03:29:58.174Z,2.50
2023-11-24T03:32:28.886Z,2.60
2023-11-24T03:34:58.194Z,2.90
2023-11-24T03:37:27.673Z,3.80
2023-11-24T03:39:56.323Z,2.80
2023-11-24T03:42:25.549Z,1.30
2023-11-24T03:44:54.360Z,2.10
2023-11-24T03:47:24.513Z,1.70
2023-11-24T03:49:53.765Z,1.50
2023-11-24T03:52:22.636Z,2.10
2023-11-24T03:54:52.093Z,0.70
2023-11-24T03:57:20.976Z,0.70
2023-11-24T03:59:49.580Z,1.80
2023-11-24T04:02:18.386Z,1.30
2023-11-24T04:04:48.837Z,1.80
2023-11-24T04:07:18.563Z,1.00
2023-11-24T04:09:47.161Z,0.80
2023-11-24T04:12:15.834Z,1.90
2023-11-24T04:14:44.866Z,1.30
2023-11-24T04:17:15.256Z,1.30
2023-11-24T04:19:44.349Z,3.60
2023-11-24T04:22:13.318Z,1.50
2023-11-24T04:24:42.584Z,1.20
2023-11-24T04:27:11.441Z,1.50
2023-11-24T04:29:40.606Z,2.10
2023-11-24T04:32:11.226Z,1.10
2023-11-24T04:34:40.444Z,1.20
2023-11-24T04:37:09.775Z,2.10
2023-11-24T04:39:38.356Z,1.50
2023-11-24T04:42:07.874Z,1.30
2023-11-24T04:44:36.504Z,1.30
2023-11-24T04:47:06.012Z,1.90
2023-11-24T04:49:35.039Z,2.90
2023-11-24T04:52:03.746Z,1.20
2023-11-24T04:54:32.665Z,1.70
2023-11-24T04:57:01.431Z,2.40
2023-11-24T04:59:32.054Z,3.20
2023-11-24T05:02:01.275Z,2.00
2023-11-24T05:04:30.170Z,3.00
2023-11-24T05:06:58.873Z,1.90
2023-11-24T05:09:27.566Z,1.90
2023-11-24T05:11:56.372Z,1.70
2023-11-24T05:14:25.433Z,1.20
2023-11-24T05:16:55.059Z,1.90
2023-11-24T05:19:23.671Z,2.30
2023-11-24T05:21:52.658Z,1.10
2023-11-24T05:24:23.060Z,0.90
2023-11-24T05:26:56.250Z,1.50
2023-11-24T05:29:26.452Z,1.40
2023-11-24T05:31:55.289Z,0.90
2023-11-24T05:34:26.406Z,1.40
2023-11-24T05:36:55.885Z,2.10
2023-11-24T05:39:25.000Z,1.40
2023-11-24T05:42:08.575Z,0.90
2023-11-24T05:44:46.195Z,1.10
2023-11-24T05:47:20.408Z,1.50
2023-11-24T05:49:53.120Z,1.20
2023-11-24T05:52:24.146Z,2.40
2023-11-24T05:54:58.986Z,1.70
2023-11-24T05:57:37.149Z,1.30
2023-11-24T06:00:11.425Z,0.90
2023-11-24T06:02:52.891Z,1.90
2023-11-24T06:05:26.460Z,1.20
2023-11-24T06:07:57.372Z,2.30
2023-11-24T06:10:28.403Z,1.80
2023-11-24T06:12:57.504Z,1.50
2023-11-24T06:15:27.839Z,0.80
2023-11-24T06:17:57.653Z,1.00
2023-11-24T06:20:26.829Z,0.90
2023-11-24T06:22:55.838Z,1.00
2023-11-24T06:25:25.593Z,0.60
2023-11-24T06:27:55.806Z,3.40
2023-11-24T06:30:26.521Z,2.00
2023-11-24T06:32:56.556Z,1.70
2023-11-24T06:35:26.646Z,1.30
2023-11-24T06:37:56.235Z,1.30
2023-11-24T06:40:25.941Z,2.00
2023-11-24T06:42:56.136Z,1.50
2023-11-24T06:45:26.600Z,1.70
2023-11-24T06:47:56.179Z,2.40
2023-11-24T06:50:25.543Z,3.00
2023-11-24T06:52:55.215Z,4.60
2023-11-24T06:55:27.521Z,1.60
2023-11-24T06:57:59.380Z,1.40
2023-11-24T07:00:31.281Z,1.10
2023-11-24T07:03:00.804Z,1.90
2023-11-24T07:05:31.409Z,1.70
2023-11-24T07:08:01.721Z,2.20
2023-11-24T07:10:31.865Z,1.80
2023-11-24T07:13:06.552Z,1.30
2023-11-24T07:15:37.548Z,1.30
2023-11-24T07:18:07.843Z,0.90
2023-11-24T07:20:37.224Z,0.90
2023-11-24T07:23:08.371Z,1.00
2023-11-24T07:25:37.214Z,2.10
2023-11-24T07:30:39.769Z,2.00
2023-11-24T07:33:12.131Z,1.10
2023-11-24T07:35:41.754Z,3.20
2023-11-24T07:38:11.882Z,1.70
2023-11-24T07:40:46.784Z,2.30
2023-11-24T07:43:16.700Z,1.70
2023-11-24T07:45:52.200Z,1.80
2023-11-24T07:48:22.092Z,0.90
2023-11-24T07:50:52.156Z,1.80
2023-11-24T07:53:22.281Z,1.10
2023-11-24T07:55:51.869Z,2.80
2023-11-24T07:58:22.472Z,1.60
2023-11-24T08:00:51.039Z,2.00
2023-11-24T08:03:20.556Z,2.10
2023-11-24T08:05:52.558Z,0.90
2023-11-24T08:08:22.205Z,2.20
2023-11-24T08:10:51.761Z,1.50
2023-11-24T08:13:21.201Z,1.80
2023-11-24T08:15:50.647Z,1.50
2023-11-24T08:18:21.770Z,1.70
2023-11-24T08:20:51.402Z,1.20
2023-11-24T08:23:23.721Z,1.40
2023-11-24T08:25:53.369Z,2.80
2023-11-24T08:28:22.767Z,1.80
2023-11-24T08:30:51.769Z,3.10
2023-11-24T08:33:21.832Z,1.40
2023-11-24T08:35:51.031Z,0.90
2023-11-24T08:38:20.032Z,1.70
2023-11-24T08:40:52.262Z,1.80
2023-11-24T08:43:23.082Z,1.30
2023-11-24T08:45:52.165Z,1.60
2023-11-24T08:48:22.841Z,0.90
2023-11-24T08:50:52.882Z,1.60
2023-11-24T08:53:21.705Z,1.70
2023-11-24T08:55:51.206Z,1.20
2023-11-24T08:58:20.739Z,2.20
2023-11-24T09:00:51.140Z,2.40
2023-11-24T09:03:20.715Z,1.80
2023-11-24T09:05:51.109Z,2.00
2023-11-24T09:08:21.302Z,1.50
2023-11-24T09:10:50.412Z,1.70
2023-11-24T09:13:20.622Z,1.70
2023-11-24T09:15:51.322Z,3.30
2023-11-24T09:18:23.170Z,4.20
2023-11-24T09:20:52.853Z,1.10
2023-11-24T09:23:22.327Z,1.50
2023-11-24T09:25:50.733Z,1.20
2023-11-24T09:28:19.767Z,1.30
2023-11-24T09:30:49.417Z,1.30
2023-11-24T09:33:21.289Z,1.10
2023-11-24T09:35:51.218Z,0.70
2023-11-24T09:38:20.765Z,2.10
2023-11-24T09:40:52.971Z,2.10
2023-11-24T09:43:25.519Z,3.00
2023-11-24T09:45:57.696Z,1.70
2023-11-24T09:48:28.973Z,2.20
2023-11-24T09:51:02.564Z,1.20
2023-11-24T09:53:35.803Z,1.60
2023-11-24T09:56:09.391Z,1.80
2023-11-24T09:58:38.900Z,2.00
2023-11-24T10:01:24.583Z,0.90
2023-11-24T10:03:56.986Z,2.20
2023-11-24T10:06:31.912Z,4.10
2023-11-24T10:09:15.401Z,2.10
2023-11-24T10:11:53.232Z,4.10
2023-11-24T10:14:27.081Z,2.20
2023-11-24T10:17:00.415Z,1.90
2023-11-24T10:19:31.760Z,1.60
2023-11-24T10:22:04.025Z,2.10
2023-11-24T10:24:40.461Z,2.70
2023-11-24T10:27:25.873Z,3.30
2023-11-24T10:29:58.042Z,3.30
2023-11-24T10:32:26.848Z,2.60
2023-11-24T10:35:00.693Z,1.70
2023-11-24T10:37:34.944Z,2.10
2023-11-24T10:40:10.872Z,3.30
2023-11-24T10:42:41.702Z,2.30
2023-11-24T10:45:11.651Z,3.20
2023-11-24T10:47:46.448Z,2.50
2023-11-24T10:52:55.545Z,1.40
2023-11-24T10:55:24.417Z,3.00
2023-11-24T10:57:56.068Z,1.80
2023-11-24T11:00:25.068Z,1.80
2023-11-24T11:02:57.286Z,1.90
2023-11-24T11:05:53.239Z,2.20
2023-11-24T11:09:32.430Z,1.30
2023-11-24T11:12:15.019Z,2.20
2023-11-24T11:14:47.429Z,1.50
2023-11-24T11:17:20.226Z,2.50
2023-11-24T11:20:14.223Z,3.60
2023-11-24T11:22:45.806Z,4.00
2023-11-24T11:25:14.974Z,3.00
2023-11-24T11:27:45.454Z,3.70
2023-11-24T11:30:27.644Z,3.40
2023-11-24T11:33:04.201Z,4.00
2023-11-24T11:35:36.960Z,6.80
2023-11-24T11:38:05.732Z,2.20
2023-11-24T11:40:35.217Z,2.20
2023-11-24T11:43:11.465Z,3.00
2023-11-24T11:46:11.337Z,3.00
2023-11-24T11:48:44.684Z,2.90
2023-11-24T11:51:19.235Z,2.30
2023-11-24T11:56:22.215Z,2.30
2023-11-24T11:58:50.721Z,1.30
2023-11-24T12:01:20.412Z,1.70
2023-11-24T12:03:51.526Z,1.20
2023-11-24T12:06:24.551Z,1.60
2023-11-24T12:08:55.586Z,1.60
2023-11-24T12:11:24.702Z,2.30
2023-11-24T12:13:54.147Z,1.40
2023-11-24T12:16:28.819Z,1.30
2023-11-24T12:18:58.504Z,2.20
2023-11-24T12:21:27.648Z,1.60
2023-11-24T12:24:08.335Z,1.80
2023-11-24T12:26:46.261Z,0.90
2023-11-24T12:29:15.204Z,1.50
2023-11-24T12:31:44.382Z,2.20
2023-11-24T12:34:21.980Z,0.90
2023-11-24T12:36:58.079Z,0.90
2023-11-24T12:39:35.745Z,1.40
2023-11-24T12:42:07.957Z,1.60
2023-11-24T12:44:41.407Z,0.80
2023-11-24T12:47:12.149Z,1.40
2023-11-24T12:50:15.045Z,0.90
2023-11-24T12:52:47.145Z,1.00
2023-11-24T12:55:16.418Z,3.00
2023-11-24T12:57:46.162Z,1.20
2023-11-24T13:00:18.206Z,2.70
2023-11-24T13:02:49.718Z,1.40
2023-11-24T13:05:19.639Z,2.30
2023-11-24T13:07:49.290Z,1.70
2023-11-24T13:10:18.835Z,1.20
2023-11-24T13:12:48.276Z,1.60
2023-11-24T13:15:17.624Z,0.80
2023-11-24T13:17:46.266Z,1.50
2023-11-24T13:20:15.736Z,1.30
2023-11-24T13:22:45.751Z,3.10
2023-11-24T13:25:16.125Z,1.60
2023-11-24T13:27:45.018Z,1.90
2023-11-24T13:30:16.678Z,0.90
2023-11-24T13:32:45.820Z,0.90
2023-11-24T13:35:20.612Z,2.30
2023-11-24T13:37:51.289Z,1.70
2023-11-24T13:40:27.900Z,1.70
2023-11-24T13:42:57.625Z,1.60
2023-11-24T13:45:28.638Z,1.80
2023-11-24T13:48:00.465Z,1.90
2023-11-24T13:50:31.344Z,5.50
2023-11-24T13:53:00.746Z,2.20
2023-11-24T13:55:35.702Z,2.70
2023-11-24T13:58:05.325Z,3.00
2023-11-24T14:00:33.946Z,3.80
2023-11-24T14:03:03.408Z,4.70
2023-11-24T14:05:32.429Z,2.70
2023-11-24T14:08:01.650Z,2.60
2023-11-24T14:10:30.787Z,2.20
2023-11-24T14:13:00.056Z,2.20
2023-11-24T14:15:28.985Z,2.40
2023-11-24T14:17:58.293Z,2.50
2023-11-24T14:20:27.795Z,2.00
2023-11-24T14:22:56.178Z,3.10
2023-11-24T14:25:24.977Z,2.00
2023-11-24T14:27:54.904Z,2.10
2023-11-24T14:30:23.462Z,2.80
2023-11-24T14:32:52.820Z,1.80
2023-11-24T14:35:22.410Z,1.50
2023-11-24T14:37:51.156Z,1.80
2023-11-24T14:40:21.568Z,1.50
2023-11-24T14:42:51.291Z,2.00
2023-11-24T14:45:22.164Z,1.70
2023-11-24T14:47:53.953Z,2.80
2023-11-24T14:50:33.033Z,2.40
2023-11-24T14:53:04.231Z,2.20
2023-11-24T14:55:36.433Z,4.70
2023-11-24T14:58:06.001Z,1.80
2023-11-24T15:00:36.165Z,1.50
2023-11-24T15:03:16.047Z,1.50
2023-11-24T15:05:53.711Z,2.80
2023-11-24T15:08:22.126Z,2.40
2023-11-24T15:10:50.832Z,2.00
2023-11-24T15:13:23.025Z,2.40
2023-11-24T15:15:51.920Z,1.90
2023-11-24T15:18:23.376Z,1.90
2023-11-24T15:20:57.616Z,3.90
2023-11-24T15:25:54.936Z,1.00
2023-11-24T15:28:25.300Z,2.20
2023-11-24T15:30:55.880Z,1.40
2023-11-24T15:33:31.534Z,1.80
2023-11-24T15:36:01.999Z,1.20
2023-11-24T15:38:30.713Z,2.40
2023-11-24T15:40:59.364Z,2.40
2023-11-24T15:43:28.531Z,3.80
2023-11-24T15:45:59.192Z,2.30
2023-11-24T15:48:27.897Z,1.60
2023-11-24T15:50:59.486Z,1.30
2023-11-24T15:53:29.728Z,1.70
2023-11-24T15:55:59.640Z,4.40
2023-11-24T16:00:58.514Z,5.10
2023-11-24T16:03:27.158Z,2.60
2023-11-24T16:06:01.296Z,1.40
2023-11-24T16:08:34.570Z,2.10
2023-11-24T16:11:11.179Z,2.50
2023-11-24T16:13:46.237Z,1.90
2023-11-24T16:16:15.664Z,1.90
2023-11-24T16:18:46.244Z,2.40
2023-11-24T16:21:14.989Z,2.70
2023-11-24T16:23:43.535Z,3.00
2023-11-24T16:26:12.054Z,2.20
2023-11-24T16:28:42.776Z,2.10
2023-11-24T16:31:13.251Z,2.80
2023-11-24T16:33:42.649Z,4.00
2023-11-24T16:36:12.917Z,3.20
2023-11-24T16:38:42.750Z,3.80
2023-11-24T16:41:15.703Z,2.90
2023-11-24T16:43:44.103Z,4.10
2023-11-24T16:46:12.771Z,2.80
2023-11-24T16:48:41.818Z,3.50
2023-11-24T16:51:10.422Z,2.70
2023-11-24T16:53:38.925Z,2.80
2023-11-24T16:56:07.643Z,2.30
2023-11-24T16:58:36.487Z,2.50
2023-11-24T17:01:05.032Z,2.80
2023-11-24T17:03:38.918Z,2.70
2023-11-24T17:06:09.054Z,1.90
2023-11-24T17:08:40.755Z,2.40
2023-11-24T17:11:12.328Z,1.90
2023-11-24T17:13:41.144Z,2.30
2023-11-24T17:16:11.516Z,2.50
2023-11-24T17:18:40.158Z,2.90
2023-11-24T17:21:09.793Z,3.30
2023-11-24T17:23:42.208Z,4.00
2023-11-24T17:26:11.653Z,3.10
2023-11-24T17:28:41.259Z,3.10
2023-11-24T17:31:10.074Z,2.70
2023-11-24T17:33:40.792Z,2.40
2023-11-24T17:36:10.104Z,3.50
2023-11-24T17:38:38.732Z,3.40
2023-11-24T17:41:07.942Z,2.40
2023-11-24T17:43:36.319Z,2.90
2023-11-24T17:46:07.967Z,2.20
2023-11-24T17:48:37.170Z,2.70
2023-11-24T17:51:06.578Z,5.80
2023-11-24T17:53:35.065Z,2.00
2023-11-24T17:56:04.268Z,2.30
2023-11-24T17:58:32.727Z,3.00
2023-11-24T18:01:04.232Z,2.00
2023-11-24T18:03:33.126Z,2.60
2023-11-24T18:06:03.374Z,1.80
2023-11-24T18:08:34.844Z,2.90
2023-11-24T18:11:03.752Z,2.20
2023-11-24T18:13:32.226Z,2.20
2023-11-24T18:16:00.849Z,4.20
2023-11-24T18:18:29.462Z,2.70
2023-11-24T18:20:58.356Z,2.50
2023-11-24T18:23:28.718Z,4.30
2023-11-24T18:25:57.392Z,4.10
2023-11-24T18:28:26.018Z,3.20
2023-11-24T18:30:56.073Z,2.50
2023-11-24T18:33:26.446Z,2.40
2023-11-24T18:35:55.447Z,3.30
2023-11-24T18:38:23.946Z,2.90
2023-11-24T18:40:53.794Z,3.10
2023-11-24T18:43:33.801Z,3.20
2023-11-24T18:46:08.928Z,2.40
2023-11-24T18:48:37.882Z,3.20
2023-11-24T18:51:07.554Z,2.80
2023-11-24T18:53:36.500Z,2.90
2023-11-24T18:56:06.782Z,2.80
2023-11-24T18:58:35.332Z,2.70
2023-11-24T19:01:05.137Z,2.60
2023-11-24T19:03:34.377Z,3.00
2023-11-24T19:06:03.876Z,2.70
2023-11-24T19:08:33.734Z,7.90
2023-11-24T19:11:07.562Z,5.60
2023-11-24T19:13:38.852Z,6.20
2023-11-24T19:16:11.088Z,7.20
2023-11-24T19:18:40.171Z,8.10
2023-11-24T19:21:12.935Z,7.00
2023-11-24T19:23:41.892Z,7.20
2023-11-24T19:26:13.437Z,7.20
2023-11-24T19:28:58.829Z,5.20
2023-11-24T19:31:34.569Z,5.70
2023-11-24T19:34:03.765Z,5.50
2023-11-24T19:36:34.533Z,6.30
2023-11-24T19:39:03.035Z,7.10
2023-11-24T19:41:33.739Z,5.80
2023-11-24T19:44:02.430Z,5.00
2023-11-24T19:46:30.948Z,4.90
2023-11-24T19:48:59.658Z,6.90
2023-11-24T19:51:28.534Z,3.20
2023-11-24T19:53:57.643Z,4.20
2023-11-24T19:56:28.563Z,5.00
2023-11-24T19:58:56.993Z,5.50
2023-11-24T20:01:28.506Z,6.60
2023-11-24T20:03:57.605Z,6.40
2023-11-24T20:06:27.536Z,6.20
2023-11-24T20:08:55.946Z,6.80
2023-11-24T20:11:24.622Z,9.30
2023-11-24T20:13:53.448Z,8.00
2023-11-24T20:16:22.212Z,9.40
2023-11-24T20:18:51.407Z,7.80
2023-11-24T20:21:22.921Z,7.50
2023-11-24T20:23:54.219Z,5.80
2023-11-24T20:26:23.222Z,6.40
2023-11-24T20:28:53.629Z,7.80
2023-11-24T20:31:22.625Z,5.30
2023-11-24T20:33:52.127Z,5.60
2023-11-24T20:36:22.911Z,5.40
2023-11-24T20:38:56.241Z,8.20
2023-11-24T20:41:24.950Z,7.90
2023-11-24T20:43:57.880Z,6.90
2023-11-24T20:46:27.171Z,5.40
2023-11-24T20:48:55.599Z,6.70
2023-11-24T20:51:27.902Z,5.90
2023-11-24T20:53:57.395Z,6.90
2023-11-24T20:56:29.352Z,7.10
2023-11-24T20:58:58.789Z,7.70
2023-11-24T21:01:28.094Z,5.90
2023-11-24T21:03:57.288Z,8.80
2023-11-24T21:06:25.944Z,6.60
2023-11-24T21:09:01.591Z,6.80
2023-11-24T21:11:33.683Z,6.60
2023-11-24T21:14:02.496Z,7.40
2023-11-24T21:16:33.763Z,5.90
2023-11-24T21:19:02.647Z,7.80
2023-11-24T21:21:31.989Z,6.50
2023-11-24T21:24:00.774Z,6.50
2023-11-24T21:26:29.911Z,6.80
2023-11-24T21:28:58.792Z,5.30
2023-11-24T21:31:29.034Z,7.20
2023-11-24T21:33:57.596Z,7.30
2023-11-24T21:36:26.131Z,8.50
2023-11-24T21:41:26.209Z,6.30
2023-11-24T21:43:54.911Z,7.10
2023-11-24T21:46:24.424Z,5.40
2023-11-24T21:48:53.136Z,6.00
2023-11-24T21:51:21.620Z,7.40
2023-11-24T21:53:50.131Z,7.80
2023-11-24T21:56:31.131Z,6.90
2023-11-24T21:59:00.305Z,6.90
2023-11-24T22:01:29.256Z,6.20
2023-11-24T22:03:58.124Z,5.10
2023-11-24T22:06:29.914Z,5.20
2023-11-24T22:08:59.064Z,4.70
2023-11-24T22:11:27.515Z,8.20
2023-11-24T22:16:25.947Z,8.30
2023-11-24T22:18:56.760Z,6.40
2023-11-24T22:21:25.348Z,8.50
2023-11-24T22:23:54.137Z,5.20
2023-11-24T22:26:24.986Z,6.60
2023-11-24T22:28:54.392Z,5.30
2023-11-24T22:31:22.972Z,4.50
2023-11-24T22:33:51.842Z,6.80
2023-11-24T22:36:21.752Z,6.90
2023-11-24T22:38:51.156Z,6.00
2023-11-24T22:41:24.323Z,5.10
2023-11-24T22:43:54.005Z,5.50
2023-11-24T22:46:25.597Z,6.00
2023-11-24T22:48:54.998Z,5.70
2023-11-24T22:51:26.675Z,8.30
2023-11-24T22:53:55.475Z,10.30
2023-11-24T22:56:28.270Z,6.80
2023-11-24T22:58:59.950Z,6.50
2023-11-24T23:01:29.064Z,6.60
2023-11-24T23:04:01.030Z,6.50
2023-11-24T23:06:30.397Z,5.10
2023-11-24T23:08:59.740Z,7.70
2023-11-24T23:11:30.287Z,8.70
2023-11-24T23:13:59.707Z,9.30
2023-11-24T23:16:34.444Z,6.80
2023-11-24T23:19:05.250Z,6.80
2023-11-24T23:21:34.007Z,6.90
2023-11-24T23:24:03.128Z,7.50
2023-11-24T23:26:31.835Z,7.10
2023-11-24T23:29:01.880Z,6.20
2023-11-24T23:31:30.354Z,5.90
2023-11-24T23:33:58.941Z,7.60
2023-11-24T23:36:27.501Z,7.90
2023-11-24T23:38:56.513Z,6.50
2023-11-24T23:41:25.561Z,6.80
2023-11-24T23:43:54.648Z,10.30
2023-11-24T23:46:23.274Z,10.90
2023-11-24T23:48:53.093Z,8.80
2023-11-24T23:51:22.239Z,9.40
2023-11-24T23:53:50.916Z,6.60
2023-11-24T23:56:19.482Z,4.70
2023-11-24T23:58:48.506Z,4.70
